Terminal Aerodrome Forecast
Issued by NWS

Home | Current Version | Previous Version | Graphics & Text | Print | Product List | Glossary On
Versions: 1 2 3 4 5 6 7 8 9 10 11 12
680
FTUS43 KMPX 161120
TAFRWF
TAF
KRWF 161120Z 1612/1712 22007KT P6SM FEW250
     FM161800 20015G22KT P6SM SKC
     FM162300 19008KT P6SM SKC
     FM170600 25005KT P6SM SKC=

USA.gov is the U.S. government's official web portal to all federal, state and local government web resources and services.